Time;durP1;ratioP1;P1;durP2;ratioP2;P2;SDS_P1;SDS_P2;PMS_P1;PMS_P2;Temp;Humidity;BMP_temperature;BMP_pressure;BME280_temperature;BME280_humidity;BME280_pressure;Samples;Min_cycle;Max_cycle;Signal;HPM_P1;HPM_P2
2022/09/28 06:56:19;;;;;;;1.73;1.37;;;7.20;99.90;;;;;;5080621;28;20598;-83
2022/09/28 06:58:45;;;;;;;2.30;1.30;;;7.20;99.90;;;;;;5072210;28;20207;-82
2022/09/28 09:07:54;;;;;;;1.43;1.00;;;8.80;99.90;;;;;;5117396;27;20283;-85
2022/09/28 09:10:32;;;;;;;1.83;0.97;;;8.80;99.90;;;;;;5116700;28;20184;-85
2022/09/28 09:13:36;;;;;;;1.80;1.33;;;8.90;99.90;;;;;;5117605;28;20163;-83
2022/09/28 09:16:16;;;;;;;1.27;1.10;;;8.90;99.90;;;;;;5096137;28;20180;-83
2022/09/28 09:18:53;;;;;;;1.37;1.00;;;9.00;99.90;;;;;;5096361;28;20206;-84
2022/09/28 09:22:10;;;;;;;1.47;1.00;;;9.10;99.90;;;;;;5096109;28;20583;-83
2022/09/28 09:24:50;;;;;;;4.30;2.47;;;9.10;99.90;;;;;;5090870;28;20206;-83
2022/09/28 09:27:41;;;;;;;2.57;1.90;;;9.20;99.90;;;;;;5094845;28;20222;-83
2022/09/28 09:30:14;;;;;;;1.23;1.00;;;9.20;99.90;;;;;;5095588;28;20165;-83
2022/09/28 10:34:29;;;;;;;11.73;9.67;;;8.80;99.90;;;;;;5137025;27;20294;-84
2022/09/28 10:37:02;;;;;;;35.37;26.87;;;8.70;99.90;;;;;;5135895;27;20623;-84
2022/09/28 10:39:54;;;;;;;18.83;13.93;;;8.80;99.90;;;;;;5134364;28;20246;-85
2022/09/28 10:42:32;;;;;;;7.20;4.20;;;8.80;99.90;;;;;;5133845;28;20171;-84
2022/09/28 10:45:18;;;;;;;3.77;2.77;;;8.90;99.90;;;;;;5134702;28;20739;-84
2022/09/28 10:47:44;;;;;;;5.03;2.50;;;9.00;99.90;;;;;;5134739;28;20620;-84
2022/09/28 10:50:23;;;;;;;8.20;5.03;;;9.00;99.90;;;;;;5134400;28;20179;-83
2022/09/28 10:52:48;;;;;;;4.63;3.53;;;9.10;99.90;;;;;;5134356;28;20190;-85
2022/09/28 10:55:20;;;;;;;4.73;2.90;;;9.10;99.90;;;;;;5135470;28;20717;-84
2022/09/28 10:57:47;;;;;;;6.40;2.80;;;9.10;99.90;;;;;;5135176;28;20609;-85
2022/09/28 11:00:31;;;;;;;13.03;8.63;;;9.10;99.90;;;;;;5134997;28;20175;-85
2022/09/28 11:16:24;;;;;;;6.20;4.50;;;9.10;99.90;;;;;;5137922;27;20278;-85
2022/09/28 11:38:46;;;;;;;2.57;1.50;;;9.10;99.90;;;;;;5136660;27;20277;-86
2022/09/28 11:41:15;;;;;;;2.43;1.10;;;9.10;99.90;;;;;;5118248;28;20170;-84
2022/09/28 11:44:02;;;;;;;3.83;1.70;;;9.00;99.90;;;;;;5137212;28;20235;-84
2022/09/28 11:47:07;;;;;;;2.27;1.67;;;9.00;99.90;;;;;;5135949;28;20168;-83
2022/09/28 11:49:37;;;;;;;5.87;3.27;;;9.00;99.90;;;;;;5114583;27;20186;-83
2022/09/28 11:52:13;;;;;;;11.27;9.07;;;9.00;99.90;;;;;;5133726;28;20210;-83
2022/09/28 11:55:00;;;;;;;1.97;1.67;;;9.00;99.90;;;;;;5133907;28;20290;-84
2022/09/28 11:57:35;;;;;;;12.57;8.87;;;9.00;99.90;;;;;;5137187;27;20175;-82
2022/09/28 12:00:09;;;;;;;2.03;1.63;;;9.00;99.90;;;;;;5137474;28;20212;-83
2022/09/28 12:03:12;;;;;;;9.23;7.90;;;9.00;99.90;;;;;;5136296;28;20163;-83
2022/09/28 12:05:46;;;;;;;18.80;15.83;;;9.20;99.90;;;;;;5138691;28;20214;-84
2022/09/28 12:08:26;;;;;;;30.63;25.17;;;9.20;99.90;;;;;;5136746;28;20643;-84
2022/09/28 12:10:56;;;;;;;3.80;3.03;;;9.20;99.90;;;;;;5138107;28;20574;-84
2022/09/28 12:13:26;;;;;;;2.10;1.33;;;9.30;99.90;;;;;;5138096;28;20159;-84
2022/09/28 12:15:57;;;;;;;2.47;2.17;;;9.30;99.90;;;;;;5136150;28;20200;-84
2022/09/28 12:18:29;;;;;;;2.03;1.63;;;9.30;99.90;;;;;;5135904;28;20183;-85
2022/09/28 12:21:29;;;;;;;1.77;1.30;;;9.40;99.90;;;;;;5135616;28;20159;-85
2022/09/28 12:24:15;;;;;;;3.10;1.43;;;9.30;99.90;;;;;;5136395;28;20598;-84
2022/09/28 12:27:03;;;;;;;3.43;1.40;;;9.30;99.90;;;;;;5135372;28;20163;-84
2022/09/28 12:29:40;;;;;;;1.57;1.17;;;9.30;99.90;;;;;;5136164;28;20178;-85
2022/09/28 12:32:34;;;;;;;1.30;1.10;;;9.20;99.90;;;;;;5134332;28;20182;-84
2022/09/28 12:35:00;;;;;;;7.17;5.40;;;9.10;99.90;;;;;;5134190;28;20270;-85
2022/09/28 12:37:44;;;;;;;3.43;2.10;;;9.10;99.90;;;;;;5136223;27;20260;-85
2022/09/28 12:40:36;;;;;;;1.63;1.13;;;9.10;99.90;;;;;;5135757;28;20164;-84
2022/09/28 12:43:38;;;;;;;2.43;1.30;;;9.00;99.90;;;;;;5137251;28;20159;-84
2022/09/28 12:46:22;;;;;;;1.27;1.00;;;9.10;99.90;;;;;;5136702;28;20208;-87
2022/09/28 12:49:11;;;;;;;1.90;1.07;;;9.10;99.90;;;;;;5129528;28;20175;-84
2022/09/28 12:51:51;;;;;;;3.10;2.40;;;9.10;99.90;;;;;;5122698;28;20160;-83
2022/09/28 12:54:40;;;;;;;4.70;1.70;;;9.10;99.90;;;;;;5122344;28;20194;-85
2022/09/28 12:57:35;;;;;;;1.80;1.23;;;9.20;99.90;;;;;;5122624;28;20648;-87
2022/09/28 13:00:00;;;;;;;2.63;1.40;;;9.20;99.90;;;;;;5122493;28;20172;-85
2022/09/28 13:02:32;;;;;;;2.30;1.93;;;9.30;99.90;;;;;;5122618;28;20312;-87
2022/09/28 13:05:35;;;;;;;3.67;1.40;;;9.20;99.90;;;;;;5123638;28;20270;-83
2022/09/28 13:08:39;;;;;;;2.33;1.90;;;9.20;99.90;;;;;;5123144;28;20685;-84
2022/09/28 13:11:38;;;;;;;2.07;1.37;;;9.20;99.90;;;;;;5104301;28;20190;-85
2022/09/28 13:14:37;;;;;;;1.67;1.30;;;9.30;99.90;;;;;;5121552;28;20754;-85
2022/09/28 13:17:16;;;;;;;1.77;1.40;;;9.20;99.90;;;;;;5122806;28;20591;-85
2022/09/28 13:20:06;;;;;;;3.60;2.10;;;9.20;99.90;;;;;;5121134;28;20167;-86
2022/09/28 13:23:09;;;;;;;7.57;3.37;;;9.20;99.90;;;;;;5120325;28;20232;-83
2022/09/28 13:25:39;;;;;;;2.43;2.07;;;9.20;99.90;;;;;;5122359;28;20255;-83
2022/09/28 13:28:05;;;;;;;3.70;2.00;;;9.00;99.90;;;;;;5118973;28;20164;-84
2022/09/28 13:30:36;;;;;;;5.37;3.80;;;9.00;99.90;;;;;;5121307;28;20216;-85
2022/09/28 13:33:06;;;;;;;7.63;4.50;;;9.00;99.90;;;;;;5119015;28;20207;-82
2022/09/28 13:35:32;;;;;;;4.43;2.67;;;9.10;99.90;;;;;;5120276;28;20183;-82
2022/09/28 13:38:46;;;;;;;5.40;4.03;;;9.10;99.90;;;;;;5119797;28;20207;-82
2022/09/28 13:41:16;;;;;;;5.47;3.47;;;9.10;99.90;;;;;;5040513;28;20174;-82
2022/09/28 13:43:56;;;;;;;5.30;2.83;;;9.20;99.90;;;;;;5114365;28;20184;-83
2022/09/28 13:47:29;;;;;;;6.03;3.87;;;9.20;99.90;;;;;;5119917;28;20167;-83
2022/09/28 13:50:20;;;;;;;15.33;6.77;;;9.20;99.90;;;;;;5038451;28;20187;-83
2022/09/28 13:53:03;;;;;;;10.60;5.87;;;9.10;99.90;;;;;;5117119;28;20183;-84
2022/09/28 13:55:38;;;;;;;5.87;3.10;;;9.10;99.90;;;;;;5118341;28;20308;-83
2022/09/28 13:58:11;;;;;;;3.37;2.70;;;9.00;99.90;;;;;;5118161;28;20186;-82
2022/09/28 14:00:43;;;;;;;2.83;2.20;;;9.00;99.90;;;;;;5118643;28;20184;-82
2022/09/28 14:03:53;;;;;;;2.80;2.43;;;8.90;99.90;;;;;;5118108;28;20532;-83
2022/09/28 14:06:31;;;;;;;3.07;2.63;;;8.90;99.90;;;;;;5090975;28;20228;-84
2022/09/28 14:09:12;;;;;;;3.20;2.90;;;8.90;99.90;;;;;;5117955;28;20167;-83
2022/09/28 14:11:56;;;;;;;3.57;2.07;;;8.90;99.90;;;;;;5118004;28;20168;-83
2022/09/28 14:14:44;;;;;;;2.40;2.20;;;8.80;99.90;;;;;;5118982;28;20207;-83
